PWSweather.com
Personal Weather Stations
Station Observations
WD4JKH
Forsyth, GA 31029

Forsyth, GA 31029

Lat: 33.033225, Lon: -83.927995

Elevation: 709

Station Type: Davis Vantage VUE

High Low Average
Temperature 80.8°F27.1°C 67.4°F19.7°C 73.0°F22.8°C
Dew Point 61.5°F16.4°C 53.2°F11.8°C 58.5°F14.7°C
Winds 11.6 mph 18.7 kmh Calm Calm 4.0 mph E6.4 kmh E
Wind Gusts 22.0 mph35.4 kmh 2.0 mph3.2 kmh 10.0 mph16.1 kmh
Humidity 78% 44% 61%
Pressure 30.20 in1022.7 mb 30.09 in1019.0 mb -
Precipitation 0.00 in0.0 mm - -
Hour Temp Dew Point Humidity Winds Wind Gusts Pressure Precip Precip Rate Daily Precip Total
12:04 AM 72.2°F22.3°C 60.4°F15.8°C 66% 2.0 mph E3.2 kmh E 10.0 mph16.1 kmh 30.10 in1019.3 mb 0.00 in0.0 mm 0.00 in0.0 mm 0.00 in0.0 mm
12:09 AM 72.2°F22.3°C 60.4°F15.8°C 66% 3.9 mph E6.3 kmh E 8.0 mph12.9 kmh 30.10 in1019.3 mb 0.00 in0.0 mm 0.00 in0.0 mm 0.00 in0.0 mm
12:14 AM 72.2°F22.3°C 60.4°F15.8°C 66% 3.6 mph ENE5.8 kmh ENE 8.0 mph12.9 kmh 30.10 in1019.3 mb 0.00 in0.0 mm 0.00 in0.0 mm 0.00 in0.0 mm
12:19 AM 72.2°F22.3°C 60.4°F15.8°C 66% 3.8 mph E6.1 kmh E 8.0 mph12.9 kmh 30.10 in1019.3 mb 0.00 in0.0 mm 0.00 in0.0 mm 0.00 in0.0 mm
12:25 AM 72.1°F22.3°C 60.3°F15.7°C 66% 3.4 mph E5.5 kmh E 8.0 mph12.9 kmh 30.10 in1019.3 mb 0.00 in0.0 mm 0.00 in0.0 mm 0.00 in0.0 mm
12:30 AM 72.1°F22.3°C 60.3°F15.7°C 66% 4.0 mph E6.4 kmh E 8.0 mph12.9 kmh 30.10 in1019.3 mb 0.00 in0.0 mm 0.00 in0.0 mm 0.00 in0.0 mm
12:35 AM 72.1°F22.3°C 60.3°F15.7°C 66% 3.0 mph E4.8 kmh E 8.0 mph12.9 kmh 30.10 in1019.3 mb 0.00 in0.0 mm 0.00 in0.0 mm 0.00 in0.0 mm
12:39 AM 72.0°F22.2°C 60.6°F15.9°C 67% 3.6 mph E5.8 kmh E 8.0 mph12.9 kmh 30.10 in1019.3 mb 0.00 in0.0 mm 0.00 in0.0 mm 0.00 in0.0 mm
12:44 AM 72.0°F22.2°C 60.4°F15.8°C 67% 4.6 mph E7.4 kmh E 8.0 mph12.9 kmh 30.10 in1019.3 mb 0.00 in0.0 mm 0.00 in0.0 mm 0.00 in0.0 mm
12:49 AM 71.9°F22.2°C 60.3°F15.7°C 67% 3.5 mph E5.6 kmh E 8.0 mph12.9 kmh 30.10 in1019.3 mb 0.00 in0.0 mm 0.00 in0.0 mm 0.00 in0.0 mm
12:55 AM 71.8°F22.1°C 60.4°F15.8°C 67% 3.3 mph E5.3 kmh E 8.0 mph12.9 kmh 30.10 in1019.3 mb 0.00 in0.0 mm 0.00 in0.0 mm 0.00 in0.0 mm
12:58 AM 71.8°F22.1°C 60.9°F16.1°C 68% 3.4 mph E5.5 kmh E 8.0 mph12.9 kmh 30.09 in1019.0 mb 0.00 in0.0 mm 0.00 in0.0 mm 0.00 in0.0 mm
01:03 AM 71.6°F22.0°C 60.7°F15.9°C 68% 2.3 mph E3.7 kmh E 8.0 mph12.9 kmh 30.09 in1019.0 mb 0.00 in0.0 mm 0.00 in0.0 mm 0.00 in0.0 mm
01:09 AM 71.5°F21.9°C 60.6°F15.9°C 68% 3.5 mph E5.6 kmh E 8.0 mph12.9 kmh 30.10 in1019.3 mb 0.00 in0.0 mm 0.00 in0.0 mm 0.00 in0.0 mm
01:14 AM 71.4°F21.9°C 60.5°F15.8°C 68% 3.1 mph E5.0 kmh E 8.0 mph12.9 kmh 30.09 in1019.0 mb 0.00 in0.0 mm 0.00 in0.0 mm 0.00 in0.0 mm
01:18 AM 71.2°F21.8°C 60.7°F15.9°C 69% 1.6 mph SE2.6 kmh SE 8.0 mph12.9 kmh 30.09 in1019.0 mb 0.00 in0.0 mm 0.00 in0.0 mm 0.00 in0.0 mm
01:23 AM 71.1°F21.7°C 60.6°F15.9°C 69% 3.3 mph SE5.3 kmh SE 8.0 mph12.9 kmh 30.09 in1019.0 mb 0.00 in0.0 mm 0.00 in0.0 mm 0.00 in0.0 mm
01:29 AM 70.9°F21.6°C 60.4°F15.8°C 69% 2.4 mph SE3.9 kmh SE 7.0 mph11.3 kmh 30.09 in1019.0 mb 0.00 in0.0 mm 0.00 in0.0 mm 0.00 in0.0 mm
01:33 AM 70.6°F21.4°C 60.5°F15.8°C 70% 1.8 mph SE2.9 kmh SE 7.0 mph11.3 kmh 30.09 in1019.0 mb 0.00 in0.0 mm 0.00 in0.0 mm 0.00 in0.0 mm
01:38 AM 70.5°F21.4°C 60.4°F15.8°C 70% 2.1 mph ESE3.4 kmh ESE 7.0 mph11.3 kmh 30.09 in1019.0 mb 0.00 in0.0 mm 0.00 in0.0 mm 0.00 in0.0 mm
01:44 AM 70.4°F21.3°C 60.3°F15.7°C 70% 1.5 mph ENE2.4 kmh ENE 5.0 mph8.0 kmh 30.10 in1019.3 mb 0.00 in0.0 mm 0.00 in0.0 mm 0.00 in0.0 mm
01:48 AM 70.3°F21.3°C 60.6°F15.9°C 71% 2.5 mph NE4.0 kmh NE 5.0 mph8.0 kmh 30.10 in1019.3 mb 0.00 in0.0 mm 0.00 in0.0 mm 0.00 in0.0 mm
01:54 AM 70.2°F21.2°C 60.5°F15.8°C 71% 2.9 mph NE4.7 kmh NE 6.0 mph9.7 kmh 30.10 in1019.3 mb 0.00 in0.0 mm 0.00 in0.0 mm 0.00 in0.0 mm
01:59 AM 70.1°F21.2°C 60.3°F15.7°C 71% 2.7 mph NE4.3 kmh NE 6.0 mph9.7 kmh 30.10 in1019.3 mb 0.00 in0.0 mm 0.00 in0.0 mm 0.00 in0.0 mm
02:04 AM 70.0°F21.1°C 60.3°F15.7°C 71% 1.5 mph NE2.4 kmh NE 6.0 mph9.7 kmh 30.10 in1019.3 mb 0.00 in0.0 mm 0.00 in0.0 mm 0.00 in0.0 mm
02:09 AM 69.9°F21.1°C 60.2°F15.7°C 71% 2.4 mph E3.9 kmh E 7.0 mph11.3 kmh 30.10 in1019.3 mb 0.00 in0.0 mm 0.00 in0.0 mm 0.00 in0.0 mm
02:14 AM 70.0°F21.1°C 60.3°F15.7°C 71% 3.2 mph E5.1 kmh E 7.0 mph11.3 kmh 30.10 in1019.3 mb 0.00 in0.0 mm 0.00 in0.0 mm 0.00 in0.0 mm
02:19 AM 69.9°F21.1°C 60.2°F15.7°C 71% 1.7 mph E2.7 kmh E 7.0 mph11.3 kmh 30.10 in1019.3 mb 0.00 in0.0 mm 0.00 in0.0 mm 0.00 in0.0 mm
02:24 AM 69.8°F21.0°C 60.5°F15.8°C 72% 3.5 mph E5.6 kmh E 7.0 mph11.3 kmh 30.10 in1019.3 mb 0.00 in0.0 mm 0.00 in0.0 mm 0.00 in0.0 mm
02:29 AM 69.6°F20.9°C 60.3°F15.7°C 72% 2.6 mph ENE4.2 kmh ENE 6.0 mph9.7 kmh 30.10 in1019.3 mb 0.00 in0.0 mm 0.00 in0.0 mm 0.00 in0.0 mm
02:34 AM 69.5°F20.8°C 60.2°F15.7°C 72% 2.9 mph E4.7 kmh E 6.0 mph9.7 kmh 30.10 in1019.3 mb 0.00 in0.0 mm 0.00 in0.0 mm 0.00 in0.0 mm
02:39 AM 69.3°F20.7°C 60.4°F15.8°C 73% Calm Calm 6.0 mph9.7 kmh 30.10 in1019.3 mb 0.00 in0.0 mm 0.00 in0.0 mm 0.00 in0.0 mm
02:44 AM 69.1°F20.6°C 60.2°F15.7°C 73% 1.5 mph E2.4 kmh E 6.0 mph9.7 kmh 30.10 in1019.3 mb 0.00 in0.0 mm 0.00 in0.0 mm 0.00 in0.0 mm
02:49 AM 69.0°F20.6°C 60.1°F15.6°C 73% 1.5 mph E2.4 kmh E 5.0 mph8.0 kmh 30.10 in1019.3 mb 0.00 in0.0 mm 0.00 in0.0 mm 0.00 in0.0 mm
02:54 AM 68.8°F20.4°C 60.3°F15.7°C 74% 1.0 mph E1.6 kmh E 4.0 mph6.4 kmh 30.10 in1019.3 mb 0.00 in0.0 mm 0.00 in0.0 mm 0.00 in0.0 mm
02:59 AM 68.7°F20.4°C 60.2°F15.7°C 74% 1.0 mph ESE1.6 kmh ESE 3.0 mph4.8 kmh 30.10 in1019.3 mb 0.00 in0.0 mm 0.00 in0.0 mm 0.00 in0.0 mm
03:04 AM 68.6°F20.3°C 60.1°F15.6°C 74% 1.0 mph ESE1.6 kmh ESE 2.0 mph3.2 kmh 30.10 in1019.3 mb 0.00 in0.0 mm 0.00 in0.0 mm 0.00 in0.0 mm
03:09 AM 68.5°F20.3°C 60.4°F15.8°C 75% 1.0 mph ESE1.6 kmh ESE 2.0 mph3.2 kmh 30.10 in1019.3 mb 0.00 in0.0 mm 0.00 in0.0 mm 0.00 in0.0 mm
03:14 AM 68.4°F20.2°C 60.3°F15.7°C 75% 1.1 mph ENE1.8 kmh ENE 2.0 mph3.2 kmh 30.10 in1019.3 mb 0.00 in0.0 mm 0.00 in0.0 mm 0.00 in0.0 mm
03:19 AM 68.5°F20.3°C 60.4°F15.8°C 75% 2.2 mph ENE3.5 kmh ENE 4.0 mph6.4 kmh 30.10 in1019.3 mb 0.00 in0.0 mm 0.00 in0.0 mm 0.00 in0.0 mm
03:24 AM 68.5°F20.3°C 60.4°F15.8°C 75% 2.7 mph E4.3 kmh E 5.0 mph8.0 kmh 30.10 in1019.3 mb 0.00 in0.0 mm 0.00 in0.0 mm 0.00 in0.0 mm
03:29 AM 68.6°F20.3°C 60.5°F15.8°C 75% 1.5 mph E2.4 kmh E 5.0 mph8.0 kmh 30.10 in1019.3 mb 0.00 in0.0 mm 0.00 in0.0 mm 0.00 in0.0 mm
03:34 AM 68.5°F20.3°C 60.4°F15.8°C 75% 1.0 mph E1.6 kmh E 5.0 mph8.0 kmh 30.10 in1019.3 mb 0.00 in0.0 mm 0.00 in0.0 mm 0.00 in0.0 mm
03:39 AM 68.5°F20.3°C 60.4°F15.8°C 75% Calm Calm 5.0 mph8.0 kmh 30.11 in1019.6 mb 0.00 in0.0 mm 0.00 in0.0 mm 0.00 in0.0 mm
03:44 AM 68.5°F20.3°C 60.4°F15.8°C 75% 1.5 mph ENE2.4 kmh ENE 3.0 mph4.8 kmh 30.11 in1019.6 mb 0.00 in0.0 mm 0.00 in0.0 mm 0.00 in0.0 mm
03:49 AM 68.6°F20.3°C 60.5°F15.8°C 75% 1.0 mph ENE1.6 kmh ENE 2.0 mph3.2 kmh 30.10 in1019.3 mb 0.00 in0.0 mm 0.00 in0.0 mm 0.00 in0.0 mm
03:54 AM 68.7°F20.4°C 60.6°F15.9°C 75% 1.0 mph ENE1.6 kmh ENE 2.0 mph3.2 kmh 30.10 in1019.3 mb 0.00 in0.0 mm 0.00 in0.0 mm 0.00 in0.0 mm
03:59 AM 68.7°F20.4°C 60.6°F15.9°C 75% 1.5 mph ENE2.4 kmh ENE 2.0 mph3.2 kmh 30.11 in1019.6 mb 0.00 in0.0 mm 0.00 in0.0 mm 0.00 in0.0 mm
04:04 AM 68.6°F20.3°C 60.5°F15.8°C 75% 1.9 mph ENE3.1 kmh ENE 3.0 mph4.8 kmh 30.11 in1019.6 mb 0.00 in0.0 mm 0.00 in0.0 mm 0.00 in0.0 mm
04:09 AM 68.5°F20.3°C 60.8°F16.0°C 76% 2.6 mph NE4.2 kmh NE 4.0 mph6.4 kmh 30.11 in1019.6 mb 0.00 in0.0 mm 0.00 in0.0 mm 0.00 in0.0 mm
04:14 AM 68.3°F20.2°C 60.6°F15.9°C 76% 1.5 mph NE2.4 kmh NE 4.0 mph6.4 kmh 30.11 in1019.6 mb 0.00 in0.0 mm 0.00 in0.0 mm 0.00 in0.0 mm
04:19 AM 68.3°F20.2°C 60.6°F15.9°C 76% 1.9 mph NE3.1 kmh NE 4.0 mph6.4 kmh 30.11 in1019.6 mb 0.00 in0.0 mm 0.00 in0.0 mm 0.00 in0.0 mm
04:24 AM 68.2°F20.1°C 60.8°F16.0°C 77% 2.3 mph NE3.7 kmh NE 4.0 mph6.4 kmh 30.11 in1019.6 mb 0.00 in0.0 mm 0.00 in0.0 mm 0.00 in0.0 mm
04:29 AM 68.2°F20.1°C 60.8°F16.0°C 77% 1.3 mph NE2.1 kmh NE 4.0 mph6.4 kmh 30.11 in1019.6 mb 0.00 in0.0 mm 0.00 in0.0 mm 0.00 in0.0 mm
04:34 AM 68.2°F20.1°C 60.8°F16.0°C 77% 1.7 mph NE2.7 kmh NE 4.0 mph6.4 kmh 30.11 in1019.6 mb 0.00 in0.0 mm 0.00 in0.0 mm 0.00 in0.0 mm
04:39 AM 68.3°F20.2°C 60.9°F16.1°C 77% 1.5 mph NE2.4 kmh NE 4.0 mph6.4 kmh 30.11 in1019.6 mb 0.00 in0.0 mm 0.00 in0.0 mm 0.00 in0.0 mm
04:44 AM 68.3°F20.2°C 60.9°F16.1°C 77% 1.8 mph NE2.9 kmh NE 4.0 mph6.4 kmh 30.11 in1019.6 mb 0.00 in0.0 mm 0.00 in0.0 mm 0.00 in0.0 mm
04:49 AM 68.3°F20.2°C 60.9°F16.1°C 77% 1.8 mph NE2.9 kmh NE 4.0 mph6.4 kmh 30.12 in1020.0 mb 0.00 in0.0 mm 0.00 in0.0 mm 0.00 in0.0 mm
04:54 AM 68.2°F20.1°C 60.8°F16.0°C 77% 1.8 mph NE2.9 kmh NE 4.0 mph6.4 kmh 30.12 in1020.0 mb 0.00 in0.0 mm 0.00 in0.0 mm 0.00 in0.0 mm
04:59 AM 68.2°F20.1°C 60.8°F16.0°C 77% 1.7 mph NE2.7 kmh NE 4.0 mph6.4 kmh 30.12 in1020.0 mb 0.00 in0.0 mm 0.00 in0.0 mm 0.00 in0.0 mm
05:04 AM 68.2°F20.1°C 60.8°F16.0°C 77% 1.9 mph NE3.1 kmh NE 4.0 mph6.4 kmh 30.12 in1020.0 mb 0.00 in0.0 mm 0.00 in0.0 mm 0.00 in0.0 mm
05:09 AM 68.2°F20.1°C 60.8°F16.0°C 77% 1.2 mph NE1.9 kmh NE 4.0 mph6.4 kmh 30.13 in1020.3 mb 0.00 in0.0 mm 0.00 in0.0 mm 0.00 in0.0 mm
05:14 AM 68.2°F20.1°C 60.8°F16.0°C 77% 1.6 mph NE2.6 kmh NE 4.0 mph6.4 kmh 30.13 in1020.3 mb 0.00 in0.0 mm 0.00 in0.0 mm 0.00 in0.0 mm
05:19 AM 68.2°F20.1°C 60.8°F16.0°C 77% 2.1 mph NE3.4 kmh NE 5.0 mph8.0 kmh 30.13 in1020.3 mb 0.00 in0.0 mm 0.00 in0.0 mm 0.00 in0.0 mm
05:24 AM 68.2°F20.1°C 61.2°F16.2°C 78% 2.0 mph NE3.2 kmh NE 5.0 mph8.0 kmh 30.13 in1020.3 mb 0.00 in0.0 mm 0.00 in0.0 mm 0.00 in0.0 mm
05:29 AM 68.2°F20.1°C 61.2°F16.2°C 78% 1.8 mph ENE2.9 kmh ENE 5.0 mph8.0 kmh 30.13 in1020.3 mb 0.00 in0.0 mm 0.00 in0.0 mm 0.00 in0.0 mm
05:34 AM 68.2°F20.1°C 61.2°F16.2°C 78% 1.0 mph NE1.6 kmh NE 5.0 mph8.0 kmh 30.13 in1020.3 mb 0.00 in0.0 mm 0.00 in0.0 mm 0.00 in0.0 mm
05:39 AM 68.2°F20.1°C 61.2°F16.2°C 78% 1.5 mph NE2.4 kmh NE 4.0 mph6.4 kmh 30.13 in1020.3 mb 0.00 in0.0 mm 0.00 in0.0 mm 0.00 in0.0 mm
05:44 AM 68.3°F20.2°C 61.3°F16.3°C 78% 2.1 mph E3.4 kmh E 5.0 mph8.0 kmh 30.13 in1020.3 mb 0.00 in0.0 mm 0.00 in0.0 mm 0.00 in0.0 mm
05:49 AM 68.3°F20.2°C 61.3°F16.3°C 78% 1.4 mph E2.3 kmh E 5.0 mph8.0 kmh 30.14 in1020.7 mb 0.00 in0.0 mm 0.00 in0.0 mm 0.00 in0.0 mm
05:54 AM 68.4°F20.2°C 61.4°F16.3°C 78% 2.7 mph E4.3 kmh E 5.0 mph8.0 kmh 30.14 in1020.7 mb 0.00 in0.0 mm 0.00 in0.0 mm 0.00 in0.0 mm
05:58 AM 68.5°F20.3°C 61.5°F16.4°C 78% 2.7 mph E4.3 kmh E 5.0 mph8.0 kmh 30.14 in1020.7 mb 0.00 in0.0 mm 0.00 in0.0 mm 0.00 in0.0 mm
06:03 AM 68.5°F20.3°C 61.1°F16.2°C 77% 3.3 mph E5.3 kmh E 7.0 mph11.3 kmh 30.14 in1020.7 mb 0.00 in0.0 mm 0.00 in0.0 mm 0.00 in0.0 mm
06:08 AM 68.6°F20.3°C 61.2°F16.2°C 77% 3.0 mph E4.8 kmh E 7.0 mph11.3 kmh 30.14 in1020.7 mb 0.00 in0.0 mm 0.00 in0.0 mm 0.00 in0.0 mm
06:13 AM 68.6°F20.3°C 61.2°F16.2°C 77% 2.4 mph E3.9 kmh E 7.0 mph11.3 kmh 30.15 in1021.0 mb 0.00 in0.0 mm 0.00 in0.0 mm 0.00 in0.0 mm
06:18 AM 68.7°F20.4°C 61.3°F16.3°C 77% 2.6 mph E4.2 kmh E 7.0 mph11.3 kmh 30.15 in1021.0 mb 0.00 in0.0 mm 0.00 in0.0 mm 0.00 in0.0 mm
06:23 AM 68.8°F20.4°C 61.4°F16.3°C 77% 3.2 mph ENE5.1 kmh ENE 7.0 mph11.3 kmh 30.15 in1021.0 mb 0.00 in0.0 mm 0.00 in0.0 mm 0.00 in0.0 mm
06:28 AM 68.8°F20.4°C 61.4°F16.3°C 77% 2.0 mph ENE3.2 kmh ENE 7.0 mph11.3 kmh 30.15 in1021.0 mb 0.00 in0.0 mm 0.00 in0.0 mm 0.00 in0.0 mm
06:33 AM 68.8°F20.4°C 61.4°F16.3°C 77% 2.7 mph E4.3 kmh E 7.0 mph11.3 kmh 30.15 in1021.0 mb 0.00 in0.0 mm 0.00 in0.0 mm 0.00 in0.0 mm
06:38 AM 68.9°F20.5°C 61.1°F16.2°C 76% 4.7 mph E7.6 kmh E 8.0 mph12.9 kmh 30.15 in1021.0 mb 0.00 in0.0 mm 0.00 in0.0 mm 0.00 in0.0 mm
06:43 AM 68.9°F20.5°C 61.1°F16.2°C 76% 3.6 mph E5.8 kmh E 10.0 mph16.1 kmh 30.15 in1021.0 mb 0.00 in0.0 mm 0.00 in0.0 mm 0.00 in0.0 mm
06:48 AM 69.0°F20.6°C 61.2°F16.2°C 76% 4.2 mph E6.8 kmh E 10.0 mph16.1 kmh 30.15 in1021.0 mb 0.00 in0.0 mm 0.00 in0.0 mm 0.00 in0.0 mm
06:53 AM 69.0°F20.6°C 60.9°F16.1°C 75% 5.3 mph E8.5 kmh E 13.0 mph20.9 kmh 30.15 in1021.0 mb 0.00 in0.0 mm 0.00 in0.0 mm 0.00 in0.0 mm
06:58 AM 69.0°F20.6°C 60.9°F16.1°C 75% 3.6 mph E5.8 kmh E 13.0 mph20.9 kmh 30.15 in1021.0 mb 0.00 in0.0 mm 0.00 in0.0 mm 0.00 in0.0 mm
07:03 AM 69.0°F20.6°C 60.9°F16.1°C 75% 2.7 mph E4.3 kmh E 13.0 mph20.9 kmh 30.16 in1021.3 mb 0.00 in0.0 mm 0.00 in0.0 mm 0.00 in0.0 mm
07:08 AM 69.0°F20.6°C 60.5°F15.8°C 74% 3.9 mph E6.3 kmh E 13.0 mph20.9 kmh 30.16 in1021.3 mb 0.00 in0.0 mm 0.00 in0.0 mm 0.00 in0.0 mm
07:13 AM 69.0°F20.6°C 60.5°F15.8°C 74% 4.1 mph E6.6 kmh E 10.0 mph16.1 kmh 30.16 in1021.3 mb 0.00 in0.0 mm 0.00 in0.0 mm 0.00 in0.0 mm
07:18 AM 69.0°F20.6°C 60.5°F15.8°C 74% 4.8 mph E7.7 kmh E 9.0 mph14.5 kmh 30.16 in1021.3 mb 0.00 in0.0 mm 0.00 in0.0 mm 0.00 in0.0 mm
07:23 AM 68.9°F20.5°C 60.4°F15.8°C 74% 4.1 mph E6.6 kmh E 9.0 mph14.5 kmh 30.16 in1021.3 mb 0.00 in0.0 mm 0.00 in0.0 mm 0.00 in0.0 mm
07:28 AM 68.9°F20.5°C 60.4°F15.8°C 74% 4.1 mph E6.6 kmh E 9.0 mph14.5 kmh 30.16 in1021.3 mb 0.00 in0.0 mm 0.00 in0.0 mm 0.00 in0.0 mm
07:33 AM 68.9°F20.5°C 60.0°F15.6°C 73% 4.4 mph E7.1 kmh E 12.0 mph19.3 kmh 30.17 in1021.7 mb 0.00 in0.0 mm 0.00 in0.0 mm 0.00 in0.0 mm
07:38 AM 68.9°F20.5°C 60.4°F15.8°C 74% 2.7 mph E4.3 kmh E 12.0 mph19.3 kmh 30.16 in1021.3 mb 0.00 in0.0 mm 0.00 in0.0 mm 0.00 in0.0 mm
07:43 AM 68.9°F20.5°C 60.0°F15.6°C 73% 3.5 mph E5.6 kmh E 12.0 mph19.3 kmh 30.17 in1021.7 mb 0.00 in0.0 mm 0.00 in0.0 mm 0.00 in0.0 mm
07:48 AM 68.9°F20.5°C 60.0°F15.6°C 73% 4.1 mph E6.6 kmh E 12.0 mph19.3 kmh 30.17 in1021.7 mb 0.00 in0.0 mm 0.00 in0.0 mm 0.00 in0.0 mm
07:53 AM 68.9°F20.5°C 59.7°F15.4°C 72% 6.3 mph E10.1 kmh E 12.0 mph19.3 kmh 30.17 in1021.7 mb 0.00 in0.0 mm 0.00 in0.0 mm 0.00 in0.0 mm
07:58 AM 68.9°F20.5°C 60.0°F15.6°C 73% 3.8 mph E6.1 kmh E 12.0 mph19.3 kmh 30.17 in1021.7 mb 0.00 in0.0 mm 0.00 in0.0 mm 0.00 in0.0 mm
08:03 AM 68.9°F20.5°C 59.7°F15.4°C 72% 4.2 mph ESE6.8 kmh ESE 12.0 mph19.3 kmh 30.18 in1022.0 mb 0.00 in0.0 mm 0.00 in0.0 mm 0.00 in0.0 mm
08:08 AM 69.0°F20.6°C 59.8°F15.4°C 72% 1.9 mph ENE3.1 kmh ENE 12.0 mph19.3 kmh 30.18 in1022.0 mb 0.00 in0.0 mm 0.00 in0.0 mm 0.00 in0.0 mm
08:13 AM 69.0°F20.6°C 59.8°F15.4°C 72% 3.3 mph E5.3 kmh E 9.0 mph14.5 kmh 30.18 in1022.0 mb 0.00 in0.0 mm 0.00 in0.0 mm 0.00 in0.0 mm
08:18 AM 69.0°F20.6°C 59.4°F15.2°C 71% 3.1 mph ENE5.0 kmh ENE 9.0 mph14.5 kmh 30.18 in1022.0 mb 0.00 in0.0 mm 0.00 in0.0 mm 0.00 in0.0 mm
08:23 AM 69.2°F20.7°C 59.6°F15.3°C 71% 3.4 mph E5.5 kmh E 9.0 mph14.5 kmh 30.18 in1022.0 mb 0.00 in0.0 mm 0.00 in0.0 mm 0.00 in0.0 mm
08:28 AM 69.2°F20.7°C 59.2°F15.1°C 70% 5.3 mph E8.5 kmh E 10.0 mph16.1 kmh 30.19 in1022.4 mb 0.00 in0.0 mm 0.00 in0.0 mm 0.00 in0.0 mm
08:33 AM 69.2°F20.7°C 58.8°F14.9°C 69% 6.2 mph E10.0 kmh E 12.0 mph19.3 kmh 30.19 in1022.4 mb 0.00 in0.0 mm 0.00 in0.0 mm 0.00 in0.0 mm
08:38 AM 69.3°F20.7°C 59.3°F15.2°C 70% 5.2 mph ENE8.4 kmh ENE 12.0 mph19.3 kmh 30.19 in1022.4 mb 0.00 in0.0 mm 0.00 in0.0 mm 0.00 in0.0 mm
08:43 AM 69.4°F20.8°C 58.8°F14.9°C 69% 5.3 mph E8.5 kmh E 12.0 mph19.3 kmh 30.19 in1022.4 mb 0.00 in0.0 mm 0.00 in0.0 mm 0.00 in0.0 mm
08:48 AM 69.6°F20.9°C 59.0°F15.0°C 69% 4.3 mph ENE6.9 kmh ENE 12.0 mph19.3 kmh 30.19 in1022.4 mb 0.00 in0.0 mm 0.00 in0.0 mm 0.00 in0.0 mm
08:53 AM 69.8°F21.0°C 59.2°F15.1°C 69% 3.1 mph ENE5.0 kmh ENE 12.0 mph19.3 kmh 30.19 in1022.4 mb 0.00 in0.0 mm 0.00 in0.0 mm 0.00 in0.0 mm
08:58 AM 69.8°F21.0°C 58.3°F14.6°C 67% 7.6 mph E12.2 kmh E 13.0 mph20.9 kmh 30.20 in1022.7 mb 0.00 in0.0 mm 0.00 in0.0 mm 0.00 in0.0 mm
09:03 AM 69.7°F20.9°C 58.7°F14.8°C 68% 6.2 mph E10.0 kmh E 13.0 mph20.9 kmh 30.20 in1022.7 mb 0.00 in0.0 mm 0.00 in0.0 mm 0.00 in0.0 mm
09:08 AM 69.8°F21.0°C 58.8°F14.9°C 68% 3.1 mph ENE5.0 kmh ENE 13.0 mph20.9 kmh 30.20 in1022.7 mb 0.00 in0.0 mm 0.00 in0.0 mm 0.00 in0.0 mm
09:13 AM 69.9°F21.1°C 58.9°F14.9°C 68% 4.4 mph ENE7.1 kmh ENE 13.0 mph20.9 kmh 30.20 in1022.7 mb 0.00 in0.0 mm 0.00 in0.0 mm 0.00 in0.0 mm
09:18 AM 69.9°F21.1°C 58.6°F14.8°C 67% 6.0 mph E9.7 kmh E 12.0 mph19.3 kmh 30.20 in1022.7 mb 0.00 in0.0 mm 0.00 in0.0 mm 0.00 in0.0 mm
09:23 AM 70.0°F21.1°C 58.5°F14.7°C 67% 4.7 mph E7.6 kmh E 11.0 mph17.7 kmh 30.20 in1022.7 mb 0.00 in0.0 mm 0.00 in0.0 mm 0.00 in0.0 mm
09:28 AM 70.1°F21.2°C 58.2°F14.6°C 66% 7.5 mph E12.1 kmh E 13.0 mph20.9 kmh 30.20 in1022.7 mb 0.00 in0.0 mm 0.00 in0.0 mm 0.00 in0.0 mm
09:33 AM 70.2°F21.2°C 58.9°F14.9°C 67% 3.8 mph ENE6.1 kmh ENE 13.0 mph20.9 kmh 30.20 in1022.7 mb 0.00 in0.0 mm 0.00 in0.0 mm 0.00 in0.0 mm
09:38 AM 70.5°F21.4°C 58.8°F14.9°C 66% 6.3 mph E10.1 kmh E 13.0 mph20.9 kmh 30.20 in1022.7 mb 0.00 in0.0 mm 0.00 in0.0 mm 0.00 in0.0 mm
09:43 AM 70.8°F21.6°C 57.6°F14.2°C 63% 8.6 mph E13.8 kmh E 14.0 mph22.5 kmh 30.20 in1022.7 mb 0.00 in0.0 mm 0.00 in0.0 mm 0.00 in0.0 mm
09:48 AM 71.0°F21.7°C 57.8°F14.3°C 63% 6.4 mph E10.3 kmh E 14.0 mph22.5 kmh 30.20 in1022.7 mb 0.00 in0.0 mm 0.00 in0.0 mm 0.00 in0.0 mm
09:53 AM 71.6°F22.0°C 58.5°F14.7°C 63% 2.9 mph E4.7 kmh E 14.0 mph22.5 kmh 30.20 in1022.7 mb 0.00 in0.0 mm 0.00 in0.0 mm 0.00 in0.0 mm
09:58 AM 72.1°F22.3°C 58.1°F14.5°C 61% 7.2 mph E11.6 kmh E 14.0 mph22.5 kmh 30.20 in1022.7 mb 0.00 in0.0 mm 0.00 in0.0 mm 0.00 in0.0 mm
10:03 AM 72.1°F22.3°C 57.2°F14.0°C 59% 5.9 mph ENE9.5 kmh ENE 13.0 mph20.9 kmh 30.20 in1022.7 mb 0.00 in0.0 mm 0.00 in0.0 mm 0.00 in0.0 mm
10:08 AM 71.9°F22.2°C 57.0°F13.9°C 59% 9.2 mph E14.8 kmh E 16.0 mph25.7 kmh 30.20 in1022.7 mb 0.00 in0.0 mm 0.00 in0.0 mm 0.00 in0.0 mm
10:13 AM 71.8°F22.1°C 56.9°F13.8°C 59% 7.3 mph E11.7 kmh E 16.0 mph25.7 kmh 30.20 in1022.7 mb 0.00 in0.0 mm 0.00 in0.0 mm 0.00 in0.0 mm
10:18 AM 72.0°F22.2°C 57.5°F14.2°C 60% 8.2 mph E13.2 kmh E 16.0 mph25.7 kmh 30.20 in1022.7 mb 0.00 in0.0 mm 0.00 in0.0 mm 0.00 in0.0 mm
10:23 AM 72.2°F22.3°C 56.8°F13.8°C 58% 8.1 mph E13.0 kmh E 16.0 mph25.7 kmh 30.20 in1022.7 mb 0.00 in0.0 mm 0.00 in0.0 mm 0.00 in0.0 mm
10:28 AM 72.3°F22.4°C 56.4°F13.6°C 57% 9.1 mph E14.6 kmh E 15.0 mph24.1 kmh 30.20 in1022.7 mb 0.00 in0.0 mm 0.00 in0.0 mm 0.00 in0.0 mm
10:33 AM 72.5°F22.5°C 57.1°F13.9°C 58% 6.1 mph E9.8 kmh E 15.0 mph24.1 kmh 30.20 in1022.7 mb 0.00 in0.0 mm 0.00 in0.0 mm 0.00 in0.0 mm
10:38 AM 72.6°F22.6°C 57.2°F14.0°C 58% 6.9 mph ESE11.1 kmh ESE 17.0 mph27.4 kmh 30.20 in1022.7 mb 0.00 in0.0 mm 0.00 in0.0 mm 0.00 in0.0 mm
10:43 AM 72.7°F22.6°C 57.2°F14.0°C 58% 5.8 mph E9.3 kmh E 17.0 mph27.4 kmh 30.20 in1022.7 mb 0.00 in0.0 mm 0.00 in0.0 mm 0.00 in0.0 mm
10:48 AM 73.1°F22.8°C 57.6°F14.2°C 58% 7.7 mph ESE12.4 kmh ESE 17.0 mph27.4 kmh 30.20 in1022.7 mb 0.00 in0.0 mm 0.00 in0.0 mm 0.00 in0.0 mm
10:53 AM 73.3°F22.9°C 57.8°F14.3°C 58% 5.2 mph SE8.4 kmh SE 17.0 mph27.4 kmh 30.20 in1022.7 mb 0.00 in0.0 mm 0.00 in0.0 mm 0.00 in0.0 mm
10:57 AM 74.3°F23.5°C 59.2°F15.1°C 59% 3.7 mph E6.0 kmh E 14.0 mph22.5 kmh 30.20 in1022.7 mb 0.00 in0.0 mm 0.00 in0.0 mm 0.00 in0.0 mm
11:02 AM 74.2°F23.4°C 57.5°F14.2°C 56% 5.6 mph ENE9.0 kmh ENE 22.0 mph35.4 kmh 30.20 in1022.7 mb 0.00 in0.0 mm 0.00 in0.0 mm 0.00 in0.0 mm
11:07 AM 74.1°F23.4°C 57.4°F14.1°C 56% 6.3 mph E10.1 kmh E 22.0 mph35.4 kmh 30.20 in1022.7 mb 0.00 in0.0 mm 0.00 in0.0 mm 0.00 in0.0 mm
11:12 AM 73.7°F23.2°C 57.5°F14.2°C 57% 7.3 mph E11.7 kmh E 22.0 mph35.4 kmh 30.20 in1022.7 mb 0.00 in0.0 mm 0.00 in0.0 mm 0.00 in0.0 mm
11:17 AM 74.0°F23.3°C 57.5°F14.2°C 56% 4.7 mph NE7.6 kmh NE 22.0 mph35.4 kmh 30.20 in1022.7 mb 0.00 in0.0 mm 0.00 in0.0 mm 0.00 in0.0 mm
11:22 AM 74.6°F23.7°C 58.0°F14.4°C 56% 4.4 mph ENE7.1 kmh ENE 14.0 mph22.5 kmh 30.20 in1022.7 mb 0.00 in0.0 mm 0.00 in0.0 mm 0.00 in0.0 mm
11:27 AM 74.4°F23.6°C 57.3°F14.1°C 55% 5.8 mph E9.3 kmh E 14.0 mph22.5 kmh 30.19 in1022.4 mb 0.00 in0.0 mm 0.00 in0.0 mm 0.00 in0.0 mm
11:32 AM 74.5°F23.6°C 57.4°F14.1°C 55% 5.9 mph E9.5 kmh E 13.0 mph20.9 kmh 30.19 in1022.4 mb 0.00 in0.0 mm 0.00 in0.0 mm 0.00 in0.0 mm
11:37 AM 74.9°F23.8°C 57.8°F14.3°C 55% 6.1 mph E9.8 kmh E 15.0 mph24.1 kmh 30.19 in1022.4 mb 0.00 in0.0 mm 0.00 in0.0 mm 0.00 in0.0 mm
11:42 AM 74.7°F23.7°C 57.6°F14.2°C 55% 6.9 mph E11.1 kmh E 15.0 mph24.1 kmh 30.19 in1022.4 mb 0.00 in0.0 mm 0.00 in0.0 mm 0.00 in0.0 mm
11:47 AM 74.8°F23.8°C 58.2°F14.6°C 56% 7.3 mph ENE11.7 kmh ENE 15.0 mph24.1 kmh 30.19 in1022.4 mb 0.00 in0.0 mm 0.00 in0.0 mm 0.00 in0.0 mm
11:52 AM 74.9°F23.8°C 57.8°F14.3°C 55% 7.4 mph NE11.9 kmh NE 16.0 mph25.7 kmh 30.19 in1022.4 mb 0.00 in0.0 mm 0.00 in0.0 mm 0.00 in0.0 mm
11:57 AM 75.1°F23.9°C 57.3°F14.1°C 54% 7.5 mph ENE12.1 kmh ENE 16.0 mph25.7 kmh 30.19 in1022.4 mb 0.00 in0.0 mm 0.00 in0.0 mm 0.00 in0.0 mm
12:02 PM 75.3°F24.1°C 58.2°F14.6°C 55% 7.1 mph E11.4 kmh E 16.0 mph25.7 kmh 30.19 in1022.4 mb 0.00 in0.0 mm 0.00 in0.0 mm 0.00 in0.0 mm
12:07 PM 75.7°F24.3°C 58.4°F14.7°C 55% 4.2 mph E6.8 kmh E 16.0 mph25.7 kmh 30.19 in1022.4 mb 0.00 in0.0 mm 0.00 in0.0 mm 0.00 in0.0 mm
12:12 PM 76.1°F24.5°C 58.4°F14.7°C 54% 6.8 mph ENE10.9 kmh ENE 15.0 mph24.1 kmh 30.18 in1022.0 mb 0.00 in0.0 mm 0.00 in0.0 mm 0.00 in0.0 mm
12:17 PM 76.3°F24.6°C 58.6°F14.8°C 54% 7.3 mph ENE11.7 kmh ENE 15.0 mph24.1 kmh 30.18 in1022.0 mb 0.00 in0.0 mm 0.00 in0.0 mm 0.00 in0.0 mm
12:22 PM 76.4°F24.7°C 57.6°F14.2°C 52% 6.1 mph ESE9.8 kmh ESE 15.0 mph24.1 kmh 30.18 in1022.0 mb 0.00 in0.0 mm 0.00 in0.0 mm 0.00 in0.0 mm
12:27 PM 76.3°F24.6°C 57.5°F14.2°C 52% 7.2 mph E11.6 kmh E 15.0 mph24.1 kmh 30.18 in1022.0 mb 0.00 in0.0 mm 0.00 in0.0 mm 0.00 in0.0 mm
12:32 PM 76.2°F24.6°C 58.0°F14.4°C 53% 6.1 mph E9.8 kmh E 15.0 mph24.1 kmh 30.17 in1021.7 mb 0.00 in0.0 mm 0.00 in0.0 mm 0.00 in0.0 mm
12:37 PM 77.1°F25.1°C 57.7°F14.3°C 51% 3.9 mph E6.3 kmh E 14.0 mph22.5 kmh 30.17 in1021.7 mb 0.00 in0.0 mm 0.00 in0.0 mm 0.00 in0.0 mm
12:42 PM 77.4°F25.2°C 58.0°F14.4°C 51% 5.4 mph E8.7 kmh E 14.0 mph22.5 kmh 30.17 in1021.7 mb 0.00 in0.0 mm 0.00 in0.0 mm 0.00 in0.0 mm
12:47 PM 77.1°F25.1°C 58.2°F14.6°C 52% 7.0 mph ESE11.3 kmh ESE 17.0 mph27.4 kmh 30.17 in1021.7 mb 0.00 in0.0 mm 0.00 in0.0 mm 0.00 in0.0 mm
12:52 PM 77.4°F25.2°C 58.0°F14.4°C 51% 5.1 mph ESE8.2 kmh ESE 17.0 mph27.4 kmh 30.17 in1021.7 mb 0.00 in0.0 mm 0.00 in0.0 mm 0.00 in0.0 mm
12:57 PM 77.7°F25.4°C 57.6°F14.2°C 50% 7.2 mph NE11.6 kmh NE 17.0 mph27.4 kmh 30.17 in1021.7 mb 0.00 in0.0 mm 0.00 in0.0 mm 0.00 in0.0 mm
01:02 PM 77.6°F25.3°C 58.2°F14.6°C 51% 3.7 mph NE6.0 kmh NE 17.0 mph27.4 kmh 30.17 in1021.7 mb 0.00 in0.0 mm 0.00 in0.0 mm 0.00 in0.0 mm
01:07 PM 78.1°F25.6°C 58.6°F14.8°C 51% 7.6 mph NE12.2 kmh NE 16.0 mph25.7 kmh 30.16 in1021.3 mb 0.00 in0.0 mm 0.00 in0.0 mm 0.00 in0.0 mm
01:12 PM 77.9°F25.5°C 57.9°F14.4°C 50% 7.7 mph E12.4 kmh E 16.0 mph25.7 kmh 30.16 in1021.3 mb 0.00 in0.0 mm 0.00 in0.0 mm 0.00 in0.0 mm
01:17 PM 78.0°F25.6°C 58.4°F14.7°C 51% 3.7 mph E6.0 kmh E 16.0 mph25.7 kmh 30.16 in1021.3 mb 0.00 in0.0 mm 0.00 in0.0 mm 0.00 in0.0 mm
01:22 PM 78.6°F25.9°C 58.5°F14.7°C 50% 5.7 mph ESE9.2 kmh ESE 16.0 mph25.7 kmh 30.16 in1021.3 mb 0.00 in0.0 mm 0.00 in0.0 mm 0.00 in0.0 mm
01:27 PM 78.5°F25.8°C 58.4°F14.7°C 50% 4.6 mph E7.4 kmh E 16.0 mph25.7 kmh 30.16 in1021.3 mb 0.00 in0.0 mm 0.00 in0.0 mm 0.00 in0.0 mm
01:32 PM 78.7°F25.9°C 58.0°F14.4°C 49% 11.6 mph ENE18.7 kmh ENE 17.0 mph27.4 kmh 30.15 in1021.0 mb 0.00 in0.0 mm 0.00 in0.0 mm 0.00 in0.0 mm
01:37 PM 78.6°F25.9°C 58.5°F14.7°C 50% 4.9 mph E7.9 kmh E 17.0 mph27.4 kmh 30.15 in1021.0 mb 0.00 in0.0 mm 0.00 in0.0 mm 0.00 in0.0 mm
01:42 PM 78.7°F25.9°C 58.0°F14.4°C 49% 5.6 mph E9.0 kmh E 17.0 mph27.4 kmh 30.15 in1021.0 mb 0.00 in0.0 mm 0.00 in0.0 mm 0.00 in0.0 mm
01:47 PM 79.5°F26.4°C 57.5°F14.2°C 47% 7.5 mph E12.1 kmh E 17.0 mph27.4 kmh 30.15 in1021.0 mb 0.00 in0.0 mm 0.00 in0.0 mm 0.00 in0.0 mm
01:52 PM 79.2°F26.2°C 57.9°F14.4°C 48% 5.3 mph E8.5 kmh E 15.0 mph24.1 kmh 30.15 in1021.0 mb 0.00 in0.0 mm 0.00 in0.0 mm 0.00 in0.0 mm
01:57 PM 79.2°F26.2°C 57.9°F14.4°C 48% 4.7 mph ENE7.6 kmh ENE 15.0 mph24.1 kmh 30.15 in1021.0 mb 0.00 in0.0 mm 0.00 in0.0 mm 0.00 in0.0 mm
02:02 PM 79.2°F26.2°C 57.3°F14.1°C 47% 5.7 mph NE9.2 kmh NE 15.0 mph24.1 kmh 30.15 in1021.0 mb 0.00 in0.0 mm 0.00 in0.0 mm 0.00 in0.0 mm
02:07 PM 79.3°F26.3°C 57.4°F14.1°C 47% 7.6 mph NE12.2 kmh NE 14.0 mph22.5 kmh 30.15 in1021.0 mb 0.00 in0.0 mm 0.00 in0.0 mm 0.00 in0.0 mm
02:12 PM 79.4°F26.3°C 57.5°F14.2°C 47% 6.9 mph NE11.1 kmh NE 14.0 mph22.5 kmh 30.15 in1021.0 mb 0.00 in0.0 mm 0.00 in0.0 mm 0.00 in0.0 mm
02:17 PM 79.4°F26.3°C 57.5°F14.2°C 47% 4.3 mph ENE6.9 kmh ENE 14.0 mph22.5 kmh 30.15 in1021.0 mb 0.00 in0.0 mm 0.00 in0.0 mm 0.00 in0.0 mm
02:22 PM 79.7°F26.5°C 57.7°F14.3°C 47% 3.4 mph E5.5 kmh E 14.0 mph22.5 kmh 30.14 in1020.7 mb 0.00 in0.0 mm 0.00 in0.0 mm 0.00 in0.0 mm
02:27 PM 80.3°F26.8°C 58.3°F14.6°C 47% 2.4 mph NE3.9 kmh NE 14.0 mph22.5 kmh 30.14 in1020.7 mb 0.00 in0.0 mm 0.00 in0.0 mm 0.00 in0.0 mm
02:32 PM 80.6°F27.0°C 57.9°F14.4°C 46% 3.9 mph E6.3 kmh E 14.0 mph22.5 kmh 30.14 in1020.7 mb 0.00 in0.0 mm 0.00 in0.0 mm 0.00 in0.0 mm
02:37 PM 80.4°F26.9°C 57.7°F14.3°C 46% 7.3 mph E11.7 kmh E 13.0 mph20.9 kmh 30.14 in1020.7 mb 0.00 in0.0 mm 0.00 in0.0 mm 0.00 in0.0 mm
02:42 PM 80.3°F26.8°C 57.7°F14.3°C 46% 7.3 mph NE11.7 kmh NE 14.0 mph22.5 kmh 30.14 in1020.7 mb 0.00 in0.0 mm 0.00 in0.0 mm 0.00 in0.0 mm
02:47 PM 79.8°F26.6°C 57.8°F14.3°C 47% 6.4 mph ENE10.3 kmh ENE 14.0 mph22.5 kmh 30.14 in1020.7 mb 0.00 in0.0 mm 0.00 in0.0 mm 0.00 in0.0 mm
02:52 PM 79.9°F26.6°C 57.9°F14.4°C 47% 5.5 mph NE8.9 kmh NE 14.0 mph22.5 kmh 30.14 in1020.7 mb 0.00 in0.0 mm 0.00 in0.0 mm 0.00 in0.0 mm
02:57 PM 80.3°F26.8°C 57.6°F14.2°C 46% 6.6 mph NE10.6 kmh NE 14.0 mph22.5 kmh 30.13 in1020.3 mb 0.00 in0.0 mm 0.00 in0.0 mm 0.00 in0.0 mm
03:02 PM 80.3°F26.8°C 57.7°F14.3°C 46% 6.4 mph ENE10.3 kmh ENE 14.0 mph22.5 kmh 30.13 in1020.3 mb 0.00 in0.0 mm 0.00 in0.0 mm 0.00 in0.0 mm
03:07 PM 80.0°F26.7°C 57.4°F14.1°C 46% 6.9 mph ENE11.1 kmh ENE 14.0 mph22.5 kmh 30.13 in1020.3 mb 0.00 in0.0 mm 0.00 in0.0 mm 0.00 in0.0 mm
03:12 PM 80.4°F26.9°C 58.4°F14.7°C 47% 4.1 mph NE6.6 kmh NE 14.0 mph22.5 kmh 30.13 in1020.3 mb 0.00 in0.0 mm 0.00 in0.0 mm 0.00 in0.0 mm
03:17 PM 80.7°F27.1°C 58.0°F14.4°C 46% 4.9 mph NE7.9 kmh NE 14.0 mph22.5 kmh 30.13 in1020.3 mb 0.00 in0.0 mm 0.00 in0.0 mm 0.00 in0.0 mm
03:22 PM 80.6°F27.0°C 58.6°F14.8°C 47% 5.8 mph NE9.3 kmh NE 11.0 mph17.7 kmh 30.13 in1020.3 mb 0.00 in0.0 mm 0.00 in0.0 mm 0.00 in0.0 mm
03:27 PM 80.6°F27.0°C 57.9°F14.4°C 46% 4.5 mph E7.2 kmh E 11.0 mph17.7 kmh 30.13 in1020.3 mb 0.00 in0.0 mm 0.00 in0.0 mm 0.00 in0.0 mm
03:32 PM 80.5°F26.9°C 57.9°F14.4°C 46% 4.2 mph ENE6.8 kmh ENE 11.0 mph17.7 kmh 30.13 in1020.3 mb 0.00 in0.0 mm 0.00 in0.0 mm 0.00 in0.0 mm
03:37 PM 80.3°F26.8°C 57.7°F14.3°C 46% 4.8 mph NE7.7 kmh NE 11.0 mph17.7 kmh 30.13 in1020.3 mb 0.00 in0.0 mm 0.00 in0.0 mm 0.00 in0.0 mm
03:42 PM 80.6°F27.0°C 57.9°F14.4°C 46% 3.9 mph E6.3 kmh E 15.0 mph24.1 kmh 30.13 in1020.3 mb 0.00 in0.0 mm 0.00 in0.0 mm 0.00 in0.0 mm
03:47 PM 80.7°F27.1°C 58.0°F14.4°C 46% 3.6 mph E5.8 kmh E 15.0 mph24.1 kmh 30.13 in1020.3 mb 0.00 in0.0 mm 0.00 in0.0 mm 0.00 in0.0 mm
03:52 PM 80.6°F27.0°C 57.9°F14.4°C 46% 4.9 mph E7.9 kmh E 15.0 mph24.1 kmh 30.13 in1020.3 mb 0.00 in0.0 mm 0.00 in0.0 mm 0.00 in0.0 mm
03:56 PM 80.4°F26.9°C 57.7°F14.3°C 46% 8.8 mph E14.2 kmh E 15.0 mph24.1 kmh 30.13 in1020.3 mb 0.00 in0.0 mm 0.00 in0.0 mm 0.00 in0.0 mm
04:01 PM 80.3°F26.8°C 57.0°F13.9°C 45% 6.3 mph E10.1 kmh E 15.0 mph24.1 kmh 30.13 in1020.3 mb 0.00 in0.0 mm 0.00 in0.0 mm 0.00 in0.0 mm
04:06 PM 80.1°F26.7°C 57.5°F14.2°C 46% 6.8 mph NE10.9 kmh NE 15.0 mph24.1 kmh 30.13 in1020.3 mb 0.00 in0.0 mm 0.00 in0.0 mm 0.00 in0.0 mm
04:11 PM 80.4°F26.9°C 57.1°F13.9°C 45% 7.3 mph ENE11.7 kmh ENE 15.0 mph24.1 kmh 30.13 in1020.3 mb 0.00 in0.0 mm 0.00 in0.0 mm 0.00 in0.0 mm
04:16 PM 80.4°F26.9°C 57.1°F13.9°C 45% 5.7 mph ENE9.2 kmh ENE 13.0 mph20.9 kmh 30.13 in1020.3 mb 0.00 in0.0 mm 0.00 in0.0 mm 0.00 in0.0 mm
04:21 PM 80.3°F26.8°C 57.0°F13.9°C 45% 4.3 mph E6.9 kmh E 13.0 mph20.9 kmh 30.13 in1020.3 mb 0.00 in0.0 mm 0.00 in0.0 mm 0.00 in0.0 mm
04:26 PM 80.3°F26.8°C 57.6°F14.2°C 46% 5.6 mph NE9.0 kmh NE 13.0 mph20.9 kmh 30.13 in1020.3 mb 0.00 in0.0 mm 0.00 in0.0 mm 0.00 in0.0 mm
04:31 PM 80.6°F27.0°C 57.3°F14.1°C 45% 2.7 mph ENE4.3 kmh ENE 13.0 mph20.9 kmh 30.13 in1020.3 mb 0.00 in0.0 mm 0.00 in0.0 mm 0.00 in0.0 mm
04:36 PM 80.8°F27.1°C 57.5°F14.2°C 45% 4.9 mph NE7.9 kmh NE 11.0 mph17.7 kmh 30.13 in1020.3 mb 0.00 in0.0 mm 0.00 in0.0 mm 0.00 in0.0 mm
04:41 PM 80.6°F27.0°C 57.3°F14.1°C 45% 2.6 mph ENE4.2 kmh ENE 11.0 mph17.7 kmh 30.13 in1020.3 mb 0.00 in0.0 mm 0.00 in0.0 mm 0.00 in0.0 mm
04:46 PM 80.3°F26.8°C 57.0°F13.9°C 45% 7.2 mph E11.6 kmh E 12.0 mph19.3 kmh 30.13 in1020.3 mb 0.00 in0.0 mm 0.00 in0.0 mm 0.00 in0.0 mm
04:51 PM 80.3°F26.8°C 56.4°F13.6°C 44% 5.6 mph NE9.0 kmh NE 13.0 mph20.9 kmh 30.13 in1020.3 mb 0.00 in0.0 mm 0.00 in0.0 mm 0.00 in0.0 mm
04:56 PM 80.1°F26.7°C 56.8°F13.8°C 45% 6.4 mph NE10.3 kmh NE 13.0 mph20.9 kmh 30.13 in1020.3 mb 0.00 in0.0 mm 0.00 in0.0 mm 0.00 in0.0 mm
05:01 PM 80.1°F26.7°C 56.8°F13.8°C 45% 4.2 mph ENE6.8 kmh ENE 13.0 mph20.9 kmh 30.13 in1020.3 mb 0.00 in0.0 mm 0.00 in0.0 mm 0.00 in0.0 mm
05:06 PM 79.9°F26.6°C 56.7°F13.7°C 45% 3.1 mph ENE5.0 kmh ENE 13.0 mph20.9 kmh 30.13 in1020.3 mb 0.00 in0.0 mm 0.00 in0.0 mm 0.00 in0.0 mm
05:11 PM 80.0°F26.7°C 56.8°F13.8°C 45% 5.6 mph ENE9.0 kmh ENE 12.0 mph19.3 kmh 30.13 in1020.3 mb 0.00 in0.0 mm 0.00 in0.0 mm 0.00 in0.0 mm
05:16 PM 79.9°F26.6°C 57.3°F14.1°C 46% 4.5 mph ENE7.2 kmh ENE 11.0 mph17.7 kmh 30.13 in1020.3 mb 0.00 in0.0 mm 0.00 in0.0 mm 0.00 in0.0 mm
05:21 PM 79.8°F26.6°C 56.6°F13.7°C 45% 5.7 mph ENE9.2 kmh ENE 11.0 mph17.7 kmh 30.13 in1020.3 mb 0.00 in0.0 mm 0.00 in0.0 mm 0.00 in0.0 mm
05:26 PM 79.6°F26.4°C 56.4°F13.6°C 45% 4.5 mph NE7.2 kmh NE 12.0 mph19.3 kmh 30.13 in1020.3 mb 0.00 in0.0 mm 0.00 in0.0 mm 0.00 in0.0 mm
05:31 PM 79.4°F26.3°C 56.2°F13.4°C 45% 3.6 mph ENE5.8 kmh ENE 12.0 mph19.3 kmh 30.13 in1020.3 mb 0.00 in0.0 mm 0.00 in0.0 mm 0.00 in0.0 mm
05:36 PM 79.3°F26.3°C 56.8°F13.8°C 46% 4.3 mph ENE6.9 kmh ENE 12.0 mph19.3 kmh 30.13 in1020.3 mb 0.00 in0.0 mm 0.00 in0.0 mm 0.00 in0.0 mm
05:41 PM 79.1°F26.2°C 56.5°F13.6°C 46% 2.8 mph ENE4.5 kmh ENE 12.0 mph19.3 kmh 30.13 in1020.3 mb 0.00 in0.0 mm 0.00 in0.0 mm 0.00 in0.0 mm
05:46 PM 79.0°F26.1°C 56.5°F13.6°C 46% 4.8 mph NE7.7 kmh NE 10.0 mph16.1 kmh 30.13 in1020.3 mb 0.00 in0.0 mm 0.00 in0.0 mm 0.00 in0.0 mm
05:51 PM 78.9°F26.1°C 57.0°F13.9°C 47% 2.8 mph ENE4.5 kmh ENE 10.0 mph16.1 kmh 30.13 in1020.3 mb 0.00 in0.0 mm 0.00 in0.0 mm 0.00 in0.0 mm
05:56 PM 78.7°F25.9°C 56.8°F13.8°C 47% 3.9 mph NE6.3 kmh NE 10.0 mph16.1 kmh 30.13 in1020.3 mb 0.00 in0.0 mm 0.00 in0.0 mm 0.00 in0.0 mm
06:01 PM 78.6°F25.9°C 57.3°F14.1°C 48% 3.0 mph ENE4.8 kmh ENE 10.0 mph16.1 kmh 30.13 in1020.3 mb 0.00 in0.0 mm 0.00 in0.0 mm 0.00 in0.0 mm
06:06 PM 78.4°F25.8°C 57.2°F14.0°C 48% 3.1 mph ENE5.0 kmh ENE 9.0 mph14.5 kmh 30.13 in1020.3 mb 0.00 in0.0 mm 0.00 in0.0 mm 0.00 in0.0 mm
06:11 PM 78.2°F25.7°C 57.0°F13.9°C 48% 5.4 mph NE8.7 kmh NE 11.0 mph17.7 kmh 30.13 in1020.3 mb 0.00 in0.0 mm 0.00 in0.0 mm 0.00 in0.0 mm
06:16 PM 78.0°F25.6°C 57.4°F14.1°C 49% 2.9 mph ENE4.7 kmh ENE 11.0 mph17.7 kmh 30.13 in1020.3 mb 0.00 in0.0 mm 0.00 in0.0 mm 0.00 in0.0 mm
06:21 PM 77.7°F25.4°C 57.1°F13.9°C 49% 3.0 mph ENE4.8 kmh ENE 11.0 mph17.7 kmh 30.13 in1020.3 mb 0.00 in0.0 mm 0.00 in0.0 mm 0.00 in0.0 mm
06:26 PM 77.5°F25.3°C 57.5°F14.2°C 50% 2.7 mph ENE4.3 kmh ENE 11.0 mph17.7 kmh 30.13 in1020.3 mb 0.00 in0.0 mm 0.00 in0.0 mm 0.00 in0.0 mm
06:31 PM 77.2°F25.1°C 57.2°F14.0°C 50% 3.7 mph NE6.0 kmh NE 10.0 mph16.1 kmh 30.13 in1020.3 mb 0.00 in0.0 mm 0.00 in0.0 mm 0.00 in0.0 mm
06:36 PM 77.1°F25.1°C 57.0°F13.9°C 50% 1.8 mph ENE2.9 kmh ENE 10.0 mph16.1 kmh 30.13 in1020.3 mb 0.00 in0.0 mm 0.00 in0.0 mm 0.00 in0.0 mm
06:41 PM 76.8°F24.9°C 57.3°F14.1°C 51% 2.2 mph NE3.5 kmh NE 9.0 mph14.5 kmh 30.13 in1020.3 mb 0.00 in0.0 mm 0.00 in0.0 mm 0.00 in0.0 mm
06:46 PM 76.6°F24.8°C 57.2°F14.0°C 51% 4.7 mph NE7.6 kmh NE 7.0 mph11.3 kmh 30.14 in1020.7 mb 0.00 in0.0 mm 0.00 in0.0 mm 0.00 in0.0 mm
06:51 PM 76.4°F24.7°C 57.6°F14.2°C 52% 3.2 mph NE5.1 kmh NE 7.0 mph11.3 kmh 30.14 in1020.7 mb 0.00 in0.0 mm 0.00 in0.0 mm 0.00 in0.0 mm
06:56 PM 76.1°F24.5°C 57.3°F14.1°C 52% 2.5 mph NE4.0 kmh NE 7.0 mph11.3 kmh 30.14 in1020.7 mb 0.00 in0.0 mm 0.00 in0.0 mm 0.00 in0.0 mm
07:01 PM 75.8°F24.3°C 57.6°F14.2°C 53% 2.2 mph ENE3.5 kmh ENE 7.0 mph11.3 kmh 30.14 in1020.7 mb 0.00 in0.0 mm 0.00 in0.0 mm 0.00 in0.0 mm
07:06 PM 75.6°F24.2°C 57.4°F14.1°C 53% 2.6 mph ENE4.2 kmh ENE 7.0 mph11.3 kmh 30.14 in1020.7 mb 0.00 in0.0 mm 0.00 in0.0 mm 0.00 in0.0 mm
07:11 PM 75.4°F24.1°C 57.7°F14.3°C 54% 2.1 mph NE3.4 kmh NE 5.0 mph8.0 kmh 30.14 in1020.7 mb 0.00 in0.0 mm 0.00 in0.0 mm 0.00 in0.0 mm
07:16 PM 75.2°F24.0°C 57.6°F14.2°C 54% 1.5 mph ENE2.4 kmh ENE 5.0 mph8.0 kmh 30.14 in1020.7 mb 0.00 in0.0 mm 0.00 in0.0 mm 0.00 in0.0 mm
07:22 PM 75.0°F23.9°C 57.9°F14.4°C 55% 3.1 mph ENE5.0 kmh ENE 6.0 mph9.7 kmh 30.14 in1020.7 mb 0.00 in0.0 mm 0.00 in0.0 mm 0.00 in0.0 mm
07:26 PM 74.9°F23.8°C 57.8°F14.3°C 55% 3.6 mph NE5.8 kmh NE 8.0 mph12.9 kmh 30.15 in1021.0 mb 0.00 in0.0 mm 0.00 in0.0 mm 0.00 in0.0 mm
07:32 PM 74.7°F23.7°C 57.6°F14.2°C 55% 3.1 mph ENE5.0 kmh ENE 8.0 mph12.9 kmh 30.15 in1021.0 mb 0.00 in0.0 mm 0.00 in0.0 mm 0.00 in0.0 mm
07:37 PM 74.5°F23.6°C 57.9°F14.4°C 56% 1.9 mph ENE3.1 kmh ENE 8.0 mph12.9 kmh 30.15 in1021.0 mb 0.00 in0.0 mm 0.00 in0.0 mm 0.00 in0.0 mm
07:42 PM 74.3°F23.5°C 57.8°F14.3°C 56% 2.3 mph ENE3.7 kmh ENE 8.0 mph12.9 kmh 30.15 in1021.0 mb 0.00 in0.0 mm 0.00 in0.0 mm 0.00 in0.0 mm
07:47 PM 74.1°F23.4°C 57.9°F14.4°C 57% 1.7 mph ENE2.7 kmh ENE 6.0 mph9.7 kmh 30.15 in1021.0 mb 0.00 in0.0 mm 0.00 in0.0 mm 0.00 in0.0 mm
07:52 PM 74.0°F23.3°C 58.0°F14.4°C 57% 2.6 mph ENE4.2 kmh ENE 6.0 mph9.7 kmh 30.15 in1021.0 mb 0.00 in0.0 mm 0.00 in0.0 mm 0.00 in0.0 mm
07:57 PM 73.8°F23.2°C 58.3°F14.6°C 58% 2.5 mph ENE4.0 kmh ENE 6.0 mph9.7 kmh 30.15 in1021.0 mb 0.00 in0.0 mm 0.00 in0.0 mm 0.00 in0.0 mm
08:01 PM 73.6°F23.1°C 57.9°F14.4°C 58% 1.8 mph E2.9 kmh E 6.0 mph9.7 kmh 30.15 in1021.0 mb 0.00 in0.0 mm 0.00 in0.0 mm 0.00 in0.0 mm
08:07 PM 73.3°F22.9°C 58.3°F14.6°C 59% 1.4 mph ENE2.3 kmh ENE 6.0 mph9.7 kmh 30.15 in1021.0 mb 0.00 in0.0 mm 0.00 in0.0 mm 0.00 in0.0 mm
08:12 PM 73.1°F22.8°C 58.1°F14.5°C 59% 2.0 mph ENE3.2 kmh ENE 6.0 mph9.7 kmh 30.16 in1021.3 mb 0.00 in0.0 mm 0.00 in0.0 mm 0.00 in0.0 mm
08:17 PM 72.9°F22.7°C 57.9°F14.4°C 59% 1.0 mph ESE1.6 kmh ESE 6.0 mph9.7 kmh 30.16 in1021.3 mb 0.00 in0.0 mm 0.00 in0.0 mm 0.00 in0.0 mm
08:22 PM 72.7°F22.6°C 58.2°F14.6°C 60% 1.9 mph E3.1 kmh E 6.0 mph9.7 kmh 30.16 in1021.3 mb 0.00 in0.0 mm 0.00 in0.0 mm 0.00 in0.0 mm
08:27 PM 72.6°F22.6°C 58.1°F14.5°C 60% 2.2 mph E3.5 kmh E 4.0 mph6.4 kmh 30.16 in1021.3 mb 0.00 in0.0 mm 0.00 in0.0 mm 0.00 in0.0 mm
08:32 PM 72.5°F22.5°C 58.0°F14.4°C 60% 1.9 mph ENE3.1 kmh ENE 4.0 mph6.4 kmh 30.16 in1021.3 mb 0.00 in0.0 mm 0.00 in0.0 mm 0.00 in0.0 mm
08:37 PM 72.4°F22.4°C 57.9°F14.4°C 60% 2.2 mph ENE3.5 kmh ENE 4.0 mph6.4 kmh 30.16 in1021.3 mb 0.00 in0.0 mm 0.00 in0.0 mm 0.00 in0.0 mm
08:42 PM 72.4°F22.4°C 57.7°F14.3°C 60% 3.0 mph E4.8 kmh E 5.0 mph8.0 kmh 30.16 in1021.3 mb 0.00 in0.0 mm 0.00 in0.0 mm 0.00 in0.0 mm
08:47 PM 72.4°F22.4°C 57.9°F14.4°C 60% 2.8 mph ENE4.5 kmh ENE 6.0 mph9.7 kmh 30.17 in1021.7 mb 0.00 in0.0 mm 0.00 in0.0 mm 0.00 in0.0 mm
08:52 PM 72.3°F22.4°C 57.8°F14.3°C 60% 3.0 mph E4.8 kmh E 6.0 mph9.7 kmh 30.17 in1021.7 mb 0.00 in0.0 mm 0.00 in0.0 mm 0.00 in0.0 mm
08:56 PM 72.2°F22.3°C 57.7°F14.3°C 60% 2.8 mph ENE4.5 kmh ENE 6.0 mph9.7 kmh 30.17 in1021.7 mb 0.00 in0.0 mm 0.00 in0.0 mm 0.00 in0.0 mm
09:01 PM 72.1°F22.3°C 57.6°F14.2°C 60% 2.6 mph E4.2 kmh E 6.0 mph9.7 kmh 30.17 in1021.7 mb 0.00 in0.0 mm 0.00 in0.0 mm 0.00 in0.0 mm
09:06 PM 72.0°F22.2°C 57.5°F14.2°C 60% 2.1 mph ENE3.4 kmh ENE 6.0 mph9.7 kmh 30.18 in1022.0 mb 0.00 in0.0 mm 0.00 in0.0 mm 0.00 in0.0 mm
09:11 PM 71.8°F22.1°C 57.8°F14.3°C 61% 3.0 mph ENE4.8 kmh ENE 7.0 mph11.3 kmh 30.18 in1022.0 mb 0.00 in0.0 mm 0.00 in0.0 mm 0.00 in0.0 mm
09:16 PM 71.9°F22.2°C 57.4°F14.1°C 60% 3.8 mph E6.1 kmh E 10.0 mph16.1 kmh 30.18 in1022.0 mb 0.00 in0.0 mm 0.00 in0.0 mm 0.00 in0.0 mm
09:21 PM 71.8°F22.1°C 57.4°F14.1°C 60% 2.6 mph E4.2 kmh E 10.0 mph16.1 kmh 30.18 in1022.0 mb 0.00 in0.0 mm 0.00 in0.0 mm 0.00 in0.0 mm
09:26 PM 71.7°F22.1°C 57.1°F13.9°C 60% 2.7 mph ENE4.3 kmh ENE 10.0 mph16.1 kmh 30.18 in1022.0 mb 0.00 in0.0 mm 0.00 in0.0 mm 0.00 in0.0 mm
09:31 PM 71.5°F21.9°C 57.3°F14.1°C 61% 1.7 mph E2.7 kmh E 10.0 mph16.1 kmh 30.18 in1022.0 mb 0.00 in0.0 mm 0.00 in0.0 mm 0.00 in0.0 mm
09:36 PM 71.2°F21.8°C 57.3°F14.1°C 61% 2.4 mph E3.9 kmh E 7.0 mph11.3 kmh 30.18 in1022.0 mb 0.00 in0.0 mm 0.00 in0.0 mm 0.00 in0.0 mm
09:41 PM 71.1°F21.7°C 57.2°F14.0°C 61% 2.5 mph ENE4.0 kmh ENE 6.0 mph9.7 kmh 30.18 in1022.0 mb 0.00 in0.0 mm 0.00 in0.0 mm 0.00 in0.0 mm
09:46 PM 70.9°F21.6°C 57.0°F13.9°C 61% 2.7 mph E4.3 kmh E 9.0 mph14.5 kmh 30.19 in1022.4 mb 0.00 in0.0 mm 0.00 in0.0 mm 0.00 in0.0 mm
09:51 PM 70.9°F21.6°C 57.0°F13.9°C 61% 3.0 mph ENE4.8 kmh ENE 10.0 mph16.1 kmh 30.18 in1022.0 mb 0.00 in0.0 mm 0.00 in0.0 mm 0.00 in0.0 mm
09:56 PM 70.9°F21.6°C 57.0°F13.9°C 61% 4.6 mph ENE7.4 kmh ENE 10.0 mph16.1 kmh 30.19 in1022.4 mb 0.00 in0.0 mm 0.00 in0.0 mm 0.00 in0.0 mm
10:01 PM 70.8°F21.6°C 56.4°F13.6°C 60% 2.4 mph ENE3.9 kmh ENE 10.0 mph16.1 kmh 30.19 in1022.4 mb 0.00 in0.0 mm 0.00 in0.0 mm 0.00 in0.0 mm
10:06 PM 70.7°F21.5°C 56.3°F13.5°C 60% 3.3 mph E5.3 kmh E 9.0 mph14.5 kmh 30.19 in1022.4 mb 0.00 in0.0 mm 0.00 in0.0 mm 0.00 in0.0 mm
10:11 PM 70.6°F21.4°C 56.2°F13.4°C 60% 3.4 mph E5.5 kmh E 9.0 mph14.5 kmh 30.19 in1022.4 mb 0.00 in0.0 mm 0.00 in0.0 mm 0.00 in0.0 mm
10:16 PM 70.5°F21.4°C 55.7°F13.2°C 59% 4.1 mph E6.6 kmh E 10.0 mph16.1 kmh 30.19 in1022.4 mb 0.00 in0.0 mm 0.00 in0.0 mm 0.00 in0.0 mm
10:21 PM 70.4°F21.3°C 55.6°F13.1°C 59% 3.8 mph E6.1 kmh E 10.0 mph16.1 kmh 30.19 in1022.4 mb 0.00 in0.0 mm 0.00 in0.0 mm 0.00 in0.0 mm
10:26 PM 70.3°F21.3°C 55.0°F12.8°C 58% 4.1 mph ENE6.6 kmh ENE 10.0 mph16.1 kmh 30.19 in1022.4 mb 0.00 in0.0 mm 0.00 in0.0 mm 0.00 in0.0 mm
10:31 PM 70.4°F21.3°C 54.6°F12.6°C 57% 4.4 mph E7.1 kmh E 10.0 mph16.1 kmh 30.19 in1022.4 mb 0.00 in0.0 mm 0.00 in0.0 mm 0.00 in0.0 mm
10:36 PM 70.4°F21.3°C 54.6°F12.6°C 57% 4.6 mph E7.4 kmh E 10.0 mph16.1 kmh 30.19 in1022.4 mb 0.00 in0.0 mm 0.00 in0.0 mm 0.00 in0.0 mm
10:41 PM 70.3°F21.3°C 54.0°F12.2°C 56% 4.5 mph E7.2 kmh E 10.0 mph16.1 kmh 30.20 in1022.7 mb 0.00 in0.0 mm 0.00 in0.0 mm 0.00 in0.0 mm
10:46 PM 70.2°F21.2°C 54.4°F12.4°C 57% 2.9 mph ENE4.7 kmh ENE 10.0 mph16.1 kmh 30.20 in1022.7 mb 0.00 in0.0 mm 0.00 in0.0 mm 0.00 in0.0 mm
10:51 PM 69.9°F21.1°C 54.6°F12.6°C 58% 3.0 mph NE4.8 kmh NE 10.0 mph16.1 kmh 30.20 in1022.7 mb 0.00 in0.0 mm 0.00 in0.0 mm 0.00 in0.0 mm
10:56 PM 69.8°F21.0°C 54.4°F12.4°C 58% 2.3 mph E3.7 kmh E 8.0 mph12.9 kmh 30.20 in1022.7 mb 0.00 in0.0 mm 0.00 in0.0 mm 0.00 in0.0 mm
11:01 PM 69.6°F20.9°C 54.2°F12.3°C 58% 3.7 mph ENE6.0 kmh ENE 8.0 mph12.9 kmh 30.20 in1022.7 mb 0.00 in0.0 mm 0.00 in0.0 mm 0.00 in0.0 mm
11:06 PM 69.3°F20.7°C 54.4°F12.4°C 59% 2.5 mph ENE4.0 kmh ENE 8.0 mph12.9 kmh 30.20 in1022.7 mb 0.00 in0.0 mm 0.00 in0.0 mm 0.00 in0.0 mm
11:11 PM 69.1°F20.6°C 54.2°F12.3°C 59% 2.8 mph ENE4.5 kmh ENE 7.0 mph11.3 kmh 30.20 in1022.7 mb 0.00 in0.0 mm 0.00 in0.0 mm 0.00 in0.0 mm
11:16 PM 68.7°F20.4°C 54.3°F12.4°C 60% 2.4 mph ENE3.9 kmh ENE 7.0 mph11.3 kmh 30.20 in1022.7 mb 0.00 in0.0 mm 0.00 in0.0 mm 0.00 in0.0 mm
11:21 PM 68.5°F20.3°C 54.1°F12.3°C 60% 3.3 mph ENE5.3 kmh ENE 8.0 mph12.9 kmh 30.20 in1022.7 mb 0.00 in0.0 mm 0.00 in0.0 mm 0.00 in0.0 mm
11:26 PM 68.2°F20.1°C 54.2°F12.3°C 61% 3.2 mph ENE5.1 kmh ENE 8.0 mph12.9 kmh 30.20 in1022.7 mb 0.00 in0.0 mm 0.00 in0.0 mm 0.00 in0.0 mm
11:31 PM 68.0°F20.0°C 54.7°F12.6°C 62% 2.5 mph ENE4.0 kmh ENE 8.0 mph12.9 kmh 30.20 in1022.7 mb 0.00 in0.0 mm 0.00 in0.0 mm 0.00 in0.0 mm
11:36 PM 67.7°F19.8°C 54.6°F12.6°C 63% 2.0 mph E3.2 kmh E 8.0 mph12.9 kmh 30.20 in1022.7 mb 0.00 in0.0 mm 0.00 in0.0 mm 0.00 in0.0 mm
11:41 PM 67.4°F19.7°C 54.5°F12.5°C 63% 2.4 mph E3.9 kmh E 6.0 mph9.7 kmh 30.20 in1022.7 mb 0.00 in0.0 mm 0.00 in0.0 mm 0.00 in0.0 mm
11:46 PM 67.5°F19.7°C 54.2°F12.3°C 62% 3.7 mph ENE6.0 kmh ENE 8.0 mph12.9 kmh 30.20 in1022.7 mb 0.00 in0.0 mm 0.00 in0.0 mm 0.00 in0.0 mm
11:51 PM 67.7°F19.8°C 53.5°F11.9°C 60% 3.7 mph ENE6.0 kmh ENE 13.0 mph20.9 kmh 30.20 in1022.7 mb 0.00 in0.0 mm 0.00 in0.0 mm 0.00 in0.0 mm
11:56 PM 67.6°F19.8°C 53.2°F11.8°C 60% 2.7 mph E4.3 kmh E 13.0 mph20.9 kmh 30.20 in1022.7 mb 0.00 in0.0 mm 0.00 in0.0 mm 0.00 in0.0 mm